sensor_id;sensor_type;location;lat;lon;timestamp;pressure;altitude;pressure_sealevel;temperature;humidity
48530;BME280;34927;37.302;-121.982;2022-11-13T00:00:57;101185.0;;;23.06;31.75
48530;BME280;34927;37.302;-121.982;2022-11-13T00:02:02;101185.0;;;23.04;31.75
48530;BME280;34927;37.302;-121.982;2022-11-13T00:03:06;101186.0;;;22.99;31.79
48530;BME280;34927;37.302;-121.982;2022-11-13T00:04:11;101186.0;;;23.00;31.85
48530;BME280;34927;37.302;-121.982;2022-11-13T00:05:17;101188.0;;;22.99;31.87
48530;BME280;34927;37.302;-121.982;2022-11-13T00:06:21;101186.0;;;22.94;31.93
48530;BME280;34927;37.302;-121.982;2022-11-13T00:07:27;101188.0;;;22.92;31.91
48530;BME280;34927;37.302;-121.982;2022-11-13T00:08:32;101187.0;;;22.92;31.93
48530;BME280;34927;37.302;-121.982;2022-11-13T00:09:36;101189.0;;;22.89;31.93
48530;BME280;34927;37.302;-121.982;2022-11-13T00:10:41;101190.0;;;22.88;31.97
48530;BME280;34927;37.302;-121.982;2022-11-13T00:11:47;101190.0;;;22.87;31.99
48530;BME280;34927;37.302;-121.982;2022-11-13T00:12:52;101188.0;;;22.85;31.98
48530;BME280;34927;37.302;-121.982;2022-11-13T00:13:56;101187.0;;;22.86;32.02
48530;BME280;34927;37.302;-121.982;2022-11-13T00:15:01;101188.0;;;22.82;32.08
48530;BME280;34927;37.302;-121.982;2022-11-13T00:16:10;101189.0;;;22.84;32.11
48530;BME280;34927;37.302;-121.982;2022-11-13T00:17:16;101188.0;;;22.84;32.09
48530;BME280;34927;37.302;-121.982;2022-11-13T00:18:21;101187.0;;;22.81;32.16
48530;BME280;34927;37.302;-121.982;2022-11-13T00:19:26;101186.0;;;22.80;32.15
48530;BME280;34927;37.302;-121.982;2022-11-13T00:20:31;101192.0;;;22.75;32.23
48530;BME280;34927;37.302;-121.982;2022-11-13T00:21:37;101191.0;;;22.77;32.31
48530;BME280;34927;37.302;-121.982;2022-11-13T00:22:41;101191.0;;;22.74;32.22
48530;BME280;34927;37.302;-121.982;2022-11-13T00:23:48;101192.0;;;22.79;32.24
48530;BME280;34927;37.302;-121.982;2022-11-13T00:24:51;101191.0;;;22.75;32.24
48530;BME280;34927;37.302;-121.982;2022-11-13T00:26:03;101193.0;;;22.75;32.27
48530;BME280;34927;37.302;-121.982;2022-11-13T00:27:06;101196.0;;;22.73;32.36
48530;BME280;34927;37.302;-121.982;2022-11-13T00:28:13;101198.0;;;22.75;32.32
48530;BME280;34927;37.302;-121.982;2022-11-13T00:29:16;101199.0;;;22.79;32.23
48530;BME280;34927;37.302;-121.982;2022-11-13T00:30:22;101200.0;;;22.81;32.20
48530;BME280;34927;37.302;-121.982;2022-11-13T00:31:27;101200.0;;;22.78;32.26
48530;BME280;34927;37.302;-121.982;2022-11-13T00:32:32;101197.0;;;22.97;32.05
48530;BME280;34927;37.302;-121.982;2022-11-13T00:33:37;101198.0;;;23.08;32.14
48530;BME280;34927;37.302;-121.982;2022-11-13T00:34:41;101199.0;;;22.85;32.68
48530;BME280;34927;37.302;-121.982;2022-11-13T00:35:46;101200.0;;;22.76;32.90
48530;BME280;34927;37.302;-121.982;2022-11-13T00:36:52;101202.0;;;22.77;32.90
48530;BME280;34927;37.302;-121.982;2022-11-13T00:37:57;101203.0;;;22.83;32.81
48530;BME280;34927;37.302;-121.982;2022-11-13T00:39:01;101200.0;;;23.09;32.25
48530;BME280;34927;37.302;-121.982;2022-11-13T00:40:08;101202.0;;;23.08;32.44
48530;BME280;34927;37.302;-121.982;2022-11-13T00:41:12;101203.0;;;23.03;32.41
48530;BME280;34927;37.302;-121.982;2022-11-13T00:42:16;101204.0;;;22.93;32.42
48530;BME280;34927;37.302;-121.982;2022-11-13T00:43:21;101203.0;;;22.97;32.45
48530;BME280;34927;37.302;-121.982;2022-11-13T00:44:26;101203.0;;;22.95;32.64
48530;BME280;34927;37.302;-121.982;2022-11-13T00:45:31;101206.0;;;22.87;32.87
48530;BME280;34927;37.302;-121.982;2022-11-13T00:46:36;101205.0;;;22.87;32.73
48530;BME280;34927;37.302;-121.982;2022-11-13T00:47:41;101205.0;;;22.90;32.78
48530;BME280;34927;37.302;-121.982;2022-11-13T00:48:47;101204.0;;;22.94;32.83
48530;BME280;34927;37.302;-121.982;2022-11-13T00:49:52;101210.0;;;22.82;32.84
48530;BME280;34927;37.302;-121.982;2022-11-13T00:50:56;101208.0;;;22.88;32.85
48530;BME280;34927;37.302;-121.982;2022-11-13T00:52:02;101206.0;;;22.78;32.89
48530;BME280;34927;37.302;-121.982;2022-11-13T00:53:07;101208.0;;;22.94;32.64
48530;BME280;34927;37.302;-121.982;2022-11-13T01:01:37;101210.0;;;22.91;32.56
48530;BME280;34927;37.302;-121.982;2022-11-13T01:02:42;101210.0;;;22.83;32.70
48530;BME280;34927;37.302;-121.982;2022-11-13T01:03:46;101211.0;;;22.67;32.96
48530;BME280;34927;37.302;-121.982;2022-11-13T01:04:51;101216.0;;;22.66;32.88
48530;BME280;34927;37.302;-121.982;2022-11-13T01:05:57;101215.0;;;22.67;32.92
48530;BME280;34927;37.302;-121.982;2022-11-13T01:07:01;101213.0;;;22.63;32.96
48530;BME280;34927;37.302;-121.982;2022-11-13T01:08:07;101214.0;;;22.54;33.15
48530;BME280;34927;37.302;-121.982;2022-11-13T01:09:11;101211.0;;;22.58;33.02
48530;BME280;34927;37.302;-121.982;2022-11-13T01:10:17;101217.0;;;22.55;33.07
48530;BME280;34927;37.302;-121.982;2022-11-13T01:11:24;101217.0;;;22.55;33.00
48530;BME280;34927;37.302;-121.982;2022-11-13T01:12:26;101214.0;;;22.56;33.06
48530;BME280;34927;37.302;-121.982;2022-11-13T01:13:31;101217.0;;;22.56;33.03
48530;BME280;34927;37.302;-121.982;2022-11-13T01:14:36;101218.0;;;22.48;33.14
48530;BME280;34927;37.302;-121.982;2022-11-13T01:15:43;101220.0;;;22.52;33.07
48530;BME280;34927;37.302;-121.982;2022-11-13T01:16:47;101219.0;;;22.56;32.99
48530;BME280;34927;37.302;-121.982;2022-11-13T01:17:51;101217.0;;;22.52;33.01
48530;BME280;34927;37.302;-121.982;2022-11-13T01:18:57;101217.0;;;22.51;33.02
48530;BME280;34927;37.302;-121.982;2022-11-13T01:20:02;101218.0;;;22.50;33.05
48530;BME280;34927;37.302;-121.982;2022-11-13T01:21:10;101216.0;;;22.59;32.92
48530;BME280;34927;37.302;-121.982;2022-11-13T01:22:17;101217.0;;;22.65;32.78
48530;BME280;34927;37.302;-121.982;2022-11-13T01:23:21;101214.0;;;22.61;33.15
48530;BME280;34927;37.302;-121.982;2022-11-13T01:24:26;101216.0;;;22.60;33.28
48530;BME280;34927;37.302;-121.982;2022-11-13T01:25:32;101219.0;;;22.71;33.10
48530;BME280;34927;37.302;-121.982;2022-11-13T01:26:36;101220.0;;;22.71;33.13
48530;BME280;34927;37.302;-121.982;2022-11-13T01:27:41;101225.0;;;22.71;33.11
48530;BME280;34927;37.302;-121.982;2022-11-13T01:28:47;101222.0;;;22.74;33.06
48530;BME280;34927;37.302;-121.982;2022-11-13T01:29:52;101222.0;;;22.68;33.17
48530;BME280;34927;37.302;-121.982;2022-11-13T01:30:57;101226.0;;;22.78;33.04
48530;BME280;34927;37.302;-121.982;2022-11-13T01:32:02;101226.0;;;22.73;33.01
48530;BME280;34927;37.302;-121.982;2022-11-13T01:33:06;101224.0;;;22.67;32.95
48530;BME280;34927;37.302;-121.982;2022-11-13T01:34:12;101222.0;;;22.56;33.09
48530;BME280;34927;37.302;-121.982;2022-11-13T01:35:16;101223.0;;;22.50;33.22
48530;BME280;34927;37.302;-121.982;2022-11-13T01:36:24;101222.0;;;22.39;33.26
48530;BME280;34927;37.302;-121.982;2022-11-13T01:37:26;101222.0;;;22.41;33.18
48530;BME280;34927;37.302;-121.982;2022-11-13T01:38:32;101222.0;;;22.47;33.13
48530;BME280;34927;37.302;-121.982;2022-11-13T01:39:37;101226.0;;;22.69;32.86
48530;BME280;34927;37.302;-121.982;2022-11-13T01:40:44;101225.0;;;22.53;33.76
48530;BME280;34927;37.302;-121.982;2022-11-13T01:41:46;101226.0;;;22.39;33.92
48530;BME280;34927;37.302;-121.982;2022-11-13T01:42:52;101225.0;;;22.34;33.86
48530;BME280;34927;37.302;-121.982;2022-11-13T01:43:57;101226.0;;;22.36;33.90
48530;BME280;34927;37.302;-121.982;2022-11-13T01:45:01;101230.0;;;22.49;33.71
48530;BME280;34927;37.302;-121.982;2022-11-13T01:46:12;101232.0;;;22.57;33.67
48530;BME280;34927;37.302;-121.982;2022-11-13T01:47:17;101235.0;;;22.46;34.03
48530;BME280;34927;37.302;-121.982;2022-11-13T01:48:22;101236.0;;;22.31;34.38
48530;BME280;34927;37.302;-121.982;2022-11-13T01:49:30;101237.0;;;22.31;34.49
48530;BME280;34927;37.302;-121.982;2022-11-13T01:50:37;101240.0;;;22.30;34.49
48530;BME280;34927;37.302;-121.982;2022-11-13T01:51:45;101239.0;;;22.30;34.35
48530;BME280;34927;37.302;-121.982;2022-11-13T01:52:52;101239.0;;;22.29;34.35
48530;BME280;34927;37.302;-121.982;2022-11-13T01:53:57;101238.0;;;22.43;34.18
48530;BME280;34927;37.302;-121.982;2022-11-13T01:55:06;101237.0;;;22.39;34.09
48530;BME280;34927;37.302;-121.982;2022-11-13T01:56:12;101236.0;;;22.42;34.14
48530;BME280;34927;37.302;-121.982;2022-11-13T01:57:17;101237.0;;;22.42;34.25
48530;BME280;34927;37.302;-121.982;2022-11-13T01:58:22;101236.0;;;22.30;33.91
48530;BME280;34927;37.302;-121.982;2022-11-13T01:59:29;101236.0;;;22.35;33.98
48530;BME280;34927;37.302;-121.982;2022-11-13T02:00:37;101236.0;;;22.45;33.94
48530;BME280;34927;37.302;-121.982;2022-11-13T02:01:41;101238.0;;;22.65;33.66
48530;BME280;34927;37.302;-121.982;2022-11-13T02:02:47;101241.0;;;22.96;33.25
48530;BME280;34927;37.302;-121.982;2022-11-13T02:03:52;101238.0;;;23.18;32.86
48530;BME280;34927;37.302;-121.982;2022-11-13T02:04:56;101239.0;;;23.45;32.54
48530;BME280;34927;37.302;-121.982;2022-11-13T02:06:02;101242.0;;;23.68;32.10
48530;BME280;34927;37.302;-121.982;2022-11-13T02:07:09;101236.0;;;23.91;31.74
48530;BME280;34927;37.302;-121.982;2022-11-13T02:08:16;101242.0;;;24.14;31.42
48530;BME280;34927;37.302;-121.982;2022-11-13T02:09:25;101241.0;;;24.29;31.19
48530;BME280;34927;37.302;-121.982;2022-11-13T02:10:31;101241.0;;;24.28;31.14
48530;BME280;34927;37.302;-121.982;2022-11-13T02:11:37;101242.0;;;24.19;31.13
48530;BME280;34927;37.302;-121.982;2022-11-13T02:12:45;101243.0;;;24.19;31.38
48530;BME280;34927;37.302;-121.982;2022-11-13T02:13:52;101242.0;;;24.09;31.40
48530;BME280;34927;37.302;-121.982;2022-11-13T02:14:57;101241.0;;;24.03;31.69
48530;BME280;34927;37.302;-121.982;2022-11-13T02:16:01;101239.0;;;23.91;31.58
48530;BME280;34927;37.302;-121.982;2022-11-13T02:17:09;101241.0;;;23.97;31.63
48530;BME280;34927;37.302;-121.982;2022-11-13T02:18:18;101244.0;;;23.69;32.01
48530;BME280;34927;37.302;-121.982;2022-11-13T02:19:25;101243.0;;;23.73;31.81
48530;BME280;34927;37.302;-121.982;2022-11-13T02:20:37;101244.0;;;23.57;32.12
48530;BME280;34927;37.302;-121.982;2022-11-13T02:21:49;101243.0;;;23.58;32.22
48530;BME280;34927;37.302;-121.982;2022-11-13T02:23:04;101243.0;;;23.76;32.06
48530;BME280;34927;37.302;-121.982;2022-11-13T02:24:20;101243.0;;;24.02;31.80
48530;BME280;34927;37.302;-121.982;2022-11-13T02:25:27;101241.0;;;24.28;31.53
48530;BME280;34927;37.302;-121.982;2022-11-13T02:26:33;101239.0;;;24.48;31.34
48530;BME280;34927;37.302;-121.982;2022-11-13T02:27:40;101241.0;;;24.59;31.13
48530;BME280;34927;37.302;-121.982;2022-11-13T02:28:48;101243.0;;;24.52;31.22
48530;BME280;34927;37.302;-121.982;2022-11-13T02:29:52;101247.0;;;24.51;31.07
48530;BME280;34927;37.302;-121.982;2022-11-13T02:31:06;101250.0;;;24.56;31.24
48530;BME280;34927;37.302;-121.982;2022-11-13T02:33:50;101250.0;;;24.30;31.23
48530;BME280;34927;37.302;-121.982;2022-11-13T02:34:53;101251.0;;;24.19;31.36
48530;BME280;34927;37.302;-121.982;2022-11-13T02:35:57;101253.0;;;24.05;31.44
48530;BME280;34927;37.302;-121.982;2022-11-13T02:37:01;101253.0;;;23.99;31.68
48530;BME280;34927;37.302;-121.982;2022-11-13T02:38:06;101256.0;;;23.92;31.71
48530;BME280;34927;37.302;-121.982;2022-11-13T02:39:13;101259.0;;;23.79;32.01
48530;BME280;34927;37.302;-121.982;2022-11-13T02:40:17;101262.0;;;23.82;32.40
48530;BME280;34927;37.302;-121.982;2022-11-13T02:41:21;101261.0;;;23.74;32.39
48530;BME280;34927;37.302;-121.982;2022-11-13T02:42:27;101261.0;;;23.70;32.62
48530;BME280;34927;37.302;-121.982;2022-11-13T02:43:31;101260.0;;;23.65;32.42
48530;BME280;34927;37.302;-121.982;2022-11-13T02:44:37;101256.0;;;23.57;32.27
48530;BME280;34927;37.302;-121.982;2022-11-13T02:45:42;101254.0;;;23.61;32.35
48530;BME280;34927;37.302;-121.982;2022-11-13T02:46:46;101251.0;;;23.70;32.20
48530;BME280;34927;37.302;-121.982;2022-11-13T02:47:51;101249.0;;;23.87;31.93
48530;BME280;34927;37.302;-121.982;2022-11-13T02:48:56;101249.0;;;24.03;31.59
48530;BME280;34927;37.302;-121.982;2022-11-13T02:50:02;101249.0;;;24.25;31.28
48530;BME280;34927;37.302;-121.982;2022-11-13T02:51:07;101249.0;;;24.32;31.01
48530;BME280;34927;37.302;-121.982;2022-11-13T02:52:12;101251.0;;;24.21;31.12
48530;BME280;34927;37.302;-121.982;2022-11-13T02:53:17;101253.0;;;24.24;30.83
48530;BME280;34927;37.302;-121.982;2022-11-13T02:54:21;101252.0;;;24.25;30.86
48530;BME280;34927;37.302;-121.982;2022-11-13T02:55:26;101257.0;;;24.10;30.99
48530;BME280;34927;37.302;-121.982;2022-11-13T02:56:31;101256.0;;;24.01;31.17
48530;BME280;34927;37.302;-121.982;2022-11-13T02:57:36;101255.0;;;23.99;31.09
48530;BME280;34927;37.302;-121.982;2022-11-13T02:58:42;101255.0;;;23.91;31.13
48530;BME280;34927;37.302;-121.982;2022-11-13T02:59:46;101256.0;;;23.83;31.32
48530;BME280;34927;37.302;-121.982;2022-11-13T03:00:51;101257.0;;;23.79;31.30
48530;BME280;34927;37.302;-121.982;2022-11-13T03:01:56;101258.0;;;23.70;31.54
48530;BME280;34927;37.302;-121.982;2022-11-13T03:03:01;101255.0;;;23.69;31.76
48530;BME280;34927;37.302;-121.982;2022-11-13T03:04:07;101256.0;;;23.61;31.78
48530;BME280;34927;37.302;-121.982;2022-11-13T03:05:11;101253.0;;;23.48;31.60
48530;BME280;34927;37.302;-121.982;2022-11-13T03:06:16;101252.0;;;23.44;31.81
48530;BME280;34927;37.302;-121.982;2022-11-13T03:07:22;101255.0;;;23.55;31.73
48530;BME280;34927;37.302;-121.982;2022-11-13T03:08:26;101256.0;;;23.75;31.45
48530;BME280;34927;37.302;-121.982;2022-11-13T03:09:32;101255.0;;;23.90;31.09
48530;BME280;34927;37.302;-121.982;2022-11-13T03:10:37;101257.0;;;24.08;30.82
48530;BME280;34927;37.302;-121.982;2022-11-13T03:11:42;101260.0;;;24.26;30.56
48530;BME280;34927;37.302;-121.982;2022-11-13T03:12:47;101261.0;;;24.17;30.59
48530;BME280;34927;37.302;-121.982;2022-11-13T03:13:52;101257.0;;;24.23;30.39
48530;BME280;34927;37.302;-121.982;2022-11-13T03:14:57;101256.0;;;24.22;30.50
48530;BME280;34927;37.302;-121.982;2022-11-13T03:16:07;101255.0;;;23.93;30.78
48530;BME280;34927;37.302;-121.982;2022-11-13T03:17:11;101254.0;;;23.90;30.91
48530;BME280;34927;37.302;-121.982;2022-11-13T03:18:16;101252.0;;;23.86;30.92
48530;BME280;34927;37.302;-121.982;2022-11-13T03:19:21;101252.0;;;23.78;31.00
48530;BME280;34927;37.302;-121.982;2022-11-13T03:20:27;101253.0;;;23.83;30.97
48530;BME280;34927;37.302;-121.982;2022-11-13T03:21:31;101255.0;;;23.78;31.00
48530;BME280;34927;37.302;-121.982;2022-11-13T03:22:37;101256.0;;;23.70;31.10
48530;BME280;34927;37.302;-121.982;2022-11-13T03:23:42;101259.0;;;23.69;31.23
48530;BME280;34927;37.302;-121.982;2022-11-13T03:24:46;101260.0;;;23.57;31.41
48530;BME280;34927;37.302;-121.982;2022-11-13T03:25:52;101258.0;;;23.57;31.44
48530;BME280;34927;37.302;-121.982;2022-11-13T03:26:57;101258.0;;;23.52;31.51
48530;BME280;34927;37.302;-121.982;2022-11-13T03:28:01;101257.0;;;23.45;31.64
48530;BME280;34927;37.302;-121.982;2022-11-13T03:29:07;101259.0;;;23.46;31.68
48530;BME280;34927;37.302;-121.982;2022-11-13T03:30:12;101261.0;;;23.35;31.83
48530;BME280;34927;37.302;-121.982;2022-11-13T03:31:17;101265.0;;;23.26;31.97
48530;BME280;34927;37.302;-121.982;2022-11-13T03:32:21;101267.0;;;23.24;31.99
48530;BME280;34927;37.302;-121.982;2022-11-13T03:33:27;101267.0;;;23.22;32.14
48530;BME280;34927;37.302;-121.982;2022-11-13T03:34:32;101267.0;;;23.15;32.42
48530;BME280;34927;37.302;-121.982;2022-11-13T03:35:37;101269.0;;;23.29;32.42
48530;BME280;34927;37.302;-121.982;2022-11-13T03:36:41;101267.0;;;23.48;32.30
48530;BME280;34927;37.302;-121.982;2022-11-13T03:37:46;101266.0;;;23.76;32.01
48530;BME280;34927;37.302;-121.982;2022-11-13T03:38:52;101264.0;;;23.93;31.63
48530;BME280;34927;37.302;-121.982;2022-11-13T03:39:57;101264.0;;;23.99;31.47
48530;BME280;34927;37.302;-121.982;2022-11-13T03:41:02;101265.0;;;23.96;31.33
48530;BME280;34927;37.302;-121.982;2022-11-13T03:42:06;101270.0;;;23.91;31.46
48530;BME280;34927;37.302;-121.982;2022-11-13T03:43:12;101271.0;;;23.76;31.66
48530;BME280;34927;37.302;-121.982;2022-11-13T03:44:16;101271.0;;;23.67;31.77
48530;BME280;34927;37.302;-121.982;2022-11-13T03:45:22;101270.0;;;23.64;31.73
48530;BME280;34927;37.302;-121.982;2022-11-13T03:46:26;101270.0;;;23.57;31.78
48530;BME280;34927;37.302;-121.982;2022-11-13T03:47:31;101268.0;;;23.57;31.84
48530;BME280;34927;37.302;-121.982;2022-11-13T03:48:37;101268.0;;;23.47;31.86
48530;BME280;34927;37.302;-121.982;2022-11-13T03:49:41;101266.0;;;23.41;31.99
48530;BME280;34927;37.302;-121.982;2022-11-13T03:50:49;101266.0;;;23.38;31.98
48530;BME280;34927;37.302;-121.982;2022-11-13T03:51:56;101269.0;;;23.35;32.05
48530;BME280;34927;37.302;-121.982;2022-11-13T03:53:01;101271.0;;;23.30;32.10
48530;BME280;34927;37.302;-121.982;2022-11-13T03:54:07;101270.0;;;23.22;32.21
48530;BME280;34927;37.302;-121.982;2022-11-13T03:55:11;101272.0;;;23.17;32.28
48530;BME280;34927;37.302;-121.982;2022-11-13T03:56:17;101271.0;;;23.15;32.25
48530;BME280;34927;37.302;-121.982;2022-11-13T03:57:21;101270.0;;;23.02;32.49
48530;BME280;34927;37.302;-121.982;2022-11-13T03:58:27;101268.0;;;23.05;32.46
48530;BME280;34927;37.302;-121.982;2022-11-13T03:59:32;101267.0;;;23.06;32.51
48530;BME280;34927;37.302;-121.982;2022-11-13T04:00:38;101267.0;;;23.04;32.78
48530;BME280;34927;37.302;-121.982;2022-11-13T04:01:41;101264.0;;;23.17;32.75
48530;BME280;34927;37.302;-121.982;2022-11-13T04:02:47;101261.0;;;23.34;32.65
48530;BME280;34927;37.302;-121.982;2022-11-13T04:03:51;101260.0;;;23.60;32.30
48530;BME280;34927;37.302;-121.982;2022-11-13T04:04:57;101258.0;;;23.78;31.86
48530;BME280;34927;37.302;-121.982;2022-11-13T04:06:01;101259.0;;;23.78;31.74
48530;BME280;34927;37.302;-121.982;2022-11-13T04:07:06;101261.0;;;23.78;31.61
48530;BME280;34927;37.302;-121.982;2022-11-13T04:08:11;101260.0;;;23.76;31.70
48530;BME280;34927;37.302;-121.982;2022-11-13T04:09:16;101259.0;;;23.56;31.98
48530;BME280;34927;37.302;-121.982;2022-11-13T04:10:22;101258.0;;;23.48;31.99
48530;BME280;34927;37.302;-121.982;2022-11-13T04:11:27;101259.0;;;23.46;31.98
48530;BME280;34927;37.302;-121.982;2022-11-13T04:12:31;101260.0;;;23.34;32.12
48530;BME280;34927;37.302;-121.982;2022-11-13T04:13:37;101259.0;;;23.35;32.08
48530;BME280;34927;37.302;-121.982;2022-11-13T04:14:42;101258.0;;;23.27;32.18
48530;BME280;34927;37.302;-121.982;2022-11-13T04:15:47;101260.0;;;23.25;32.12
48530;BME280;34927;37.302;-121.982;2022-11-13T04:16:52;101262.0;;;23.24;32.15
48530;BME280;34927;37.302;-121.982;2022-11-13T04:17:56;101263.0;;;23.14;32.32
48530;BME280;34927;37.302;-121.982;2022-11-13T04:19:01;101262.0;;;23.09;32.50
48530;BME280;34927;37.302;-121.982;2022-11-13T04:20:07;101264.0;;;23.11;32.43
48530;BME280;34927;37.302;-121.982;2022-11-13T04:21:12;101264.0;;;23.00;32.55
48530;BME280;34927;37.302;-121.982;2022-11-13T04:22:17;101267.0;;;22.96;32.61
48530;BME280;34927;37.302;-121.982;2022-11-13T04:23:21;101268.0;;;22.93;32.74
48530;BME280;34927;37.302;-121.982;2022-11-13T04:24:26;101268.0;;;22.88;33.23
48530;BME280;34927;37.302;-121.982;2022-11-13T04:25:32;101270.0;;;22.90;33.44
48530;BME280;34927;37.302;-121.982;2022-11-13T04:26:37;101275.0;;;23.10;33.38
48530;BME280;34927;37.302;-121.982;2022-11-13T04:27:41;101274.0;;;23.33;33.16
48530;BME280;34927;37.302;-121.982;2022-11-13T04:28:46;101275.0;;;23.57;32.92
48530;BME280;34927;37.302;-121.982;2022-11-13T04:29:52;101275.0;;;23.64;32.76
48530;BME280;34927;37.302;-121.982;2022-11-13T04:30:56;101275.0;;;23.63;32.75
48530;BME280;34927;37.302;-121.982;2022-11-13T04:32:02;101276.0;;;23.70;32.59
48530;BME280;34927;37.302;-121.982;2022-11-13T04:33:06;101276.0;;;23.46;33.00
48530;BME280;34927;37.302;-121.982;2022-11-13T04:34:12;101276.0;;;23.33;33.42
48530;BME280;34927;37.302;-121.982;2022-11-13T04:35:17;101275.0;;;23.10;34.26
48530;BME280;34927;37.302;-121.982;2022-11-13T04:36:21;101276.0;;;23.03;34.54
48530;BME280;34927;37.302;-121.982;2022-11-13T04:37:26;101274.0;;;22.80;35.21
48530;BME280;34927;37.302;-121.982;2022-11-13T04:38:32;101274.0;;;22.82;35.11
48530;BME280;34927;37.302;-121.982;2022-11-13T04:39:37;101273.0;;;22.83;34.99
48530;BME280;34927;37.302;-121.982;2022-11-13T04:40:42;101272.0;;;22.79;35.09
48530;BME280;34927;37.302;-121.982;2022-11-13T04:41:47;101272.0;;;22.77;35.39
48530;BME280;34927;37.302;-121.982;2022-11-13T04:42:51;101268.0;;;22.65;35.47
48530;BME280;34927;37.302;-121.982;2022-11-13T04:43:57;101271.0;;;22.54;35.84
48530;BME280;34927;37.302;-121.982;2022-11-13T04:45:01;101270.0;;;22.47;35.87
48530;BME280;34927;37.302;-121.982;2022-11-13T04:46:07;101274.0;;;22.53;35.84
48530;BME280;34927;37.302;-121.982;2022-11-13T04:47:11;101274.0;;;22.50;35.92
48530;BME280;34927;37.302;-121.982;2022-11-13T04:48:17;101275.0;;;22.65;35.39
48530;BME280;34927;37.302;-121.982;2022-11-13T04:49:21;101276.0;;;22.57;35.63
48530;BME280;34927;37.302;-121.982;2022-11-13T04:50:26;101275.0;;;22.42;36.09
48530;BME280;34927;37.302;-121.982;2022-11-13T04:51:32;101277.0;;;22.59;35.58
48530;BME280;34927;37.302;-121.982;2022-11-13T04:52:36;101278.0;;;22.73;35.44
48530;BME280;34927;37.302;-121.982;2022-11-13T04:53:42;101283.0;;;22.98;35.18
48530;BME280;34927;37.302;-121.982;2022-11-13T04:54:46;101286.0;;;23.22;34.77
48530;BME280;34927;37.302;-121.982;2022-11-13T04:55:52;101283.0;;;23.49;34.35
48530;BME280;34927;37.302;-121.982;2022-11-13T04:56:57;101282.0;;;23.55;34.11
48530;BME280;34927;37.302;-121.982;2022-11-13T04:58:01;101285.0;;;23.60;34.00
48530;BME280;34927;37.302;-121.982;2022-11-13T04:59:07;101285.0;;;23.54;34.11
48530;BME280;34927;37.302;-121.982;2022-11-13T05:00:13;101288.0;;;23.33;34.54
48530;BME280;34927;37.302;-121.982;2022-11-13T05:01:18;101286.0;;;23.17;34.71
48530;BME280;34927;37.302;-121.982;2022-11-13T05:02:22;101287.0;;;23.08;34.77
48530;BME280;34927;37.302;-121.982;2022-11-13T05:03:27;101285.0;;;23.02;34.93
48530;BME280;34927;37.302;-121.982;2022-11-13T05:04:33;101285.0;;;22.96;35.05
48530;BME280;34927;37.302;-121.982;2022-11-13T05:05:37;101286.0;;;22.84;35.07
48530;BME280;34927;37.302;-121.982;2022-11-13T05:06:41;101285.0;;;22.81;35.22
48530;BME280;34927;37.302;-121.982;2022-11-13T05:07:47;101286.0;;;22.96;34.77
48530;BME280;34927;37.302;-121.982;2022-11-13T05:08:51;101285.0;;;22.74;35.27
48530;BME280;34927;37.302;-121.982;2022-11-13T05:09:57;101284.0;;;22.62;35.53
48530;BME280;34927;37.302;-121.982;2022-11-13T05:11:02;101285.0;;;22.55;35.67
48530;BME280;34927;37.302;-121.982;2022-11-13T05:12:07;101288.0;;;22.48;35.76
48530;BME280;34927;37.302;-121.982;2022-11-13T05:13:11;101289.0;;;22.48;35.67
48530;BME280;34927;37.302;-121.982;2022-11-13T05:14:16;101289.0;;;22.43;35.97
48530;BME280;34927;37.302;-121.982;2022-11-13T05:15:22;101289.0;;;22.37;35.93
48530;BME280;34927;37.302;-121.982;2022-11-13T05:16:27;101289.0;;;22.51;35.42
48530;BME280;34927;37.302;-121.982;2022-11-13T05:17:32;101290.0;;;22.70;35.32
48530;BME280;34927;37.302;-121.982;2022-11-13T05:18:38;101294.0;;;22.93;35.02
48530;BME280;34927;37.302;-121.982;2022-11-13T05:19:41;101294.0;;;23.16;34.67
48530;BME280;34927;37.302;-121.982;2022-11-13T05:20:46;101297.0;;;23.41;34.23
48530;BME280;34927;37.302;-121.982;2022-11-13T05:21:51;101296.0;;;23.65;33.77
48530;BME280;34927;37.302;-121.982;2022-11-13T05:22:57;101299.0;;;23.66;33.73
48530;BME280;34927;37.302;-121.982;2022-11-13T05:24:02;101299.0;;;23.71;33.81
48530;BME280;34927;37.302;-121.982;2022-11-13T05:25:07;101299.0;;;23.51;34.10
48530;BME280;34927;37.302;-121.982;2022-11-13T05:26:13;101304.0;;;23.36;34.34
48530;BME280;34927;37.302;-121.982;2022-11-13T05:27:17;101305.0;;;23.25;34.61
48530;BME280;34927;37.302;-121.982;2022-11-13T05:28:21;101304.0;;;23.13;34.76
48530;BME280;34927;37.302;-121.982;2022-11-13T05:29:26;101304.0;;;23.08;34.79
48530;BME280;34927;37.302;-121.982;2022-11-13T05:30:31;101303.0;;;22.99;34.89
48530;BME280;34927;37.302;-121.982;2022-11-13T05:31:37;101303.0;;;22.85;35.06
48530;BME280;34927;37.302;-121.982;2022-11-13T05:32:41;101303.0;;;22.78;34.93
48530;BME280;34927;37.302;-121.982;2022-11-13T05:33:46;101302.0;;;22.68;35.36
48530;BME280;34927;37.302;-121.982;2022-11-13T05:34:51;101303.0;;;22.59;35.26
48530;BME280;34927;37.302;-121.982;2022-11-13T05:36:01;101305.0;;;22.58;35.43
48530;BME280;34927;37.302;-121.982;2022-11-13T05:37:06;101304.0;;;22.55;35.27
48530;BME280;34927;37.302;-121.982;2022-11-13T05:38:11;101304.0;;;22.52;35.37
48530;BME280;34927;37.302;-121.982;2022-11-13T05:39:17;101303.0;;;22.51;34.91
48530;BME280;34927;37.302;-121.982;2022-11-13T05:40:22;101305.0;;;22.70;34.81
48530;BME280;34927;37.302;-121.982;2022-11-13T05:41:27;101302.0;;;22.82;34.63
48530;BME280;34927;37.302;-121.982;2022-11-13T05:42:32;101300.0;;;23.06;34.30